Bishop, Georgia
Current Conditions -  °F | °C
As of 12:21 PM on Sunday 23 Nov 2014 (Local Time) from KAHN Reporting Station
Light Rain Light Rain  
Wind Chill: 51°   Ceiling: 500
Heat Index: 51°   Visibility: 3mi
Dew Point: 50°   Wind: 13mph
Humidity: 96%   Direction: 70°ENE
Pressure: 29.96"   Gusts: 20mph
Location:  33.82°N, 83.44°W
Report Text: KAHN 231721Z 07011G17KT 3SM -RA BR OVC005 11/10 A2996 RMK AO2 CIG 004V008 P0002 T01060100 $
Loading
Personal Weather Stations






























Interactive Weather Map New forecast layout! Learn more

10-Day Weather Forecast

Advertisements
Track Severe Weather on mobile